Terminal Aerodrome Forecast
Issued by NWS Tampa Bay Area, FL

Home | Current Version | Previous Version | Text Only | Print | Product List | Glossary On
Versions: 1 2 3 4 5 6 7 8 9 10 11 12 13 14
000
FTUS42 KTBW 222340
TAFSRQ
TAF
KSRQ 222340Z 2300/2324 28007KT P6SM FEW025
     FM230300 01005KT P6SM SCT015
     FM230600 05006KT 6SM BR SCT005 BKN015
     FM231400 05011KT P6SM SCT020 SCT100
     FM232000 07010KT P6SM SCT050 SCT100=

USA.gov is the U.S. government's official web portal to all federal, state and local government web resources and services.